14:43 MESZ | 02.09.2026 Profi-Wetter| Mobile Seite| Kontakt| Impressum| Datenschutz
Social

Wetterstation Padova

aktuelles Wetter
  Temperatur Wetter Niederschlag Luftdruck Wind
So, 08:00 Uhr 23° - - 1015 hPa 5 km/h N
Sa, 14:50 Uhr 31° - - 1013 hPa 13 km/h W
Sa, 13:54 Uhr 31° - - 1013 hPa 11 km/h SW
Sa, 12:50 Uhr 29° - - 1013 hPa 10 km/h SW
Sa, 11:50 Uhr 29° - - 1013 hPa 8 km/h SW
Sa, 10:50 Uhr 27° - - 1013 hPa 10 km/h SW
Sa, 09:50 Uhr 25° - - 1013 hPa 3 km/h
Sa, 08:50 Uhr 23° - - 1013 hPa 3 km/h
Sa, 08:00 Uhr 21° - - 1013 hPa 3 km/h
Fr, 15:50 Uhr 33° - - 1013 hPa 10 km/h S
Fr, 14:50 Uhr 33° - - 1013 hPa 8 km/h S
Fr, 13:50 Uhr 32° - - 1014 hPa 10 km/h S
Fr, 12:50 Uhr 31° - - 1015 hPa 8 km/h S
Fr, 11:50 Uhr 30° - - 1015 hPa 10 km/h SO
Fr, 10:50 Uhr 29° - - 1015 hPa 3 km/h
Fr, 09:50 Uhr 27° - - 1016 hPa 3 km/h
Fr, 08:50 Uhr 25° - - 1016 hPa 5 km/h SW
Fr, 08:00 Uhr 24° - - 1017 hPa 5 km/h W
Do, 15:50 Uhr 29° - - 1016 hPa 10 km/h SO
Do, 14:50 Uhr 29° - - 1017 hPa 10 km/h S

Alle Zeitangaben MESZ